sensor_id;sensor_type;location;lat;lon;timestamp;P1;durP1;ratioP1;P2;durP2;ratioP2
3331;SDS011;1678;50.94845400;5.30809100;2022-11-04T00:01:56;5.70;;;1.10;;
3331;SDS011;1678;50.94845400;5.30809100;2022-11-04T00:04:25;0.70;;;0.70;;
3331;SDS011;1678;50.94845400;5.30809100;2022-11-04T00:06:55;1.90;;;1.40;;
3331;SDS011;1678;50.94845400;5.30809100;2022-11-04T00:09:25;2.40;;;1.97;;
3331;SDS011;1678;50.94845400;5.30809100;2022-11-04T00:11:54;4.77;;;1.63;;
3331;SDS011;1678;50.94845400;5.30809100;2022-11-04T00:14:40;4.00;;;1.67;;
3331;SDS011;1678;50.94845400;5.30809100;2022-11-04T00:17:09;9.43;;;1.30;;
3331;SDS011;1678;50.94845400;5.30809100;2022-11-04T00:19:48;2.73;;;1.87;;
3331;SDS011;1678;50.94845400;5.30809100;2022-11-04T00:22:36;2.83;;;1.17;;
3331;SDS011;1678;50.94845400;5.30809100;2022-11-04T00:25:22;2.13;;;1.90;;
3331;SDS011;1678;50.94845400;5.30809100;2022-11-04T00:28:09;5.03;;;1.50;;
3331;SDS011;1678;50.94845400;5.30809100;2022-11-04T00:30:56;4.57;;;2.43;;
3331;SDS011;1678;50.94845400;5.30809100;2022-11-04T00:33:46;1.90;;;1.47;;
3331;SDS011;1678;50.94845400;5.30809100;2022-11-04T00:36:14;3.30;;;2.70;;
3331;SDS011;1678;50.94845400;5.30809100;2022-11-04T00:38:43;9.07;;;2.80;;
3331;SDS011;1678;50.94845400;5.30809100;2022-11-04T00:41:12;3.80;;;1.90;;
3331;SDS011;1678;50.94845400;5.30809100;2022-11-04T00:43:53;2.10;;;1.83;;
3331;SDS011;1678;50.94845400;5.30809100;2022-11-04T00:46:22;4.10;;;1.80;;
3331;SDS011;1678;50.94845400;5.30809100;2022-11-04T00:48:51;9.63;;;2.30;;
3331;SDS011;1678;50.94845400;5.30809100;2022-11-04T00:51:19;7.70;;;1.87;;
3331;SDS011;1678;50.94845400;5.30809100;2022-11-04T00:53:49;3.50;;;1.60;;
3331;SDS011;1678;50.94845400;5.30809100;2022-11-04T00:56:17;1.60;;;1.53;;
3331;SDS011;1678;50.94845400;5.30809100;2022-11-04T00:58:45;5.03;;;2.27;;
3331;SDS011;1678;50.94845400;5.30809100;2022-11-04T01:01:15;8.30;;;2.23;;
3331;SDS011;1678;50.94845400;5.30809100;2022-11-04T01:03:45;1.93;;;1.83;;
3331;SDS011;1678;50.94845400;5.30809100;2022-11-04T01:06:13;13.17;;;2.70;;
3331;SDS011;1678;50.94845400;5.30809100;2022-11-04T01:08:41;5.40;;;2.73;;
3331;SDS011;1678;50.94845400;5.30809100;2022-11-04T01:11:11;9.87;;;2.27;;
3331;SDS011;1678;50.94845400;5.30809100;2022-11-04T01:13:40;10.73;;;1.60;;
3331;SDS011;1678;50.94845400;5.30809100;2022-11-04T01:16:09;3.47;;;2.60;;
3331;SDS011;1678;50.94845400;5.30809100;2022-11-04T01:18:38;5.90;;;1.63;;
3331;SDS011;1678;50.94845400;5.30809100;2022-11-04T01:21:07;7.73;;;3.10;;
3331;SDS011;1678;50.94845400;5.30809100;2022-11-04T01:23:36;9.27;;;3.20;;
3331;SDS011;1678;50.94845400;5.30809100;2022-11-04T01:26:06;4.13;;;3.67;;
3331;SDS011;1678;50.94845400;5.30809100;2022-11-04T01:28:35;3.43;;;3.23;;
3331;SDS011;1678;50.94845400;5.30809100;2022-11-04T01:31:04;7.70;;;4.07;;
3331;SDS011;1678;50.94845400;5.30809100;2022-11-04T01:33:33;14.57;;;3.83;;
3331;SDS011;1678;50.94845400;5.30809100;2022-11-04T01:36:01;2.53;;;2.40;;
3331;SDS011;1678;50.94845400;5.30809100;2022-11-04T01:38:30;4.53;;;2.67;;
3331;SDS011;1678;50.94845400;5.30809100;2022-11-04T01:40:58;4.97;;;3.00;;
3331;SDS011;1678;50.94845400;5.30809100;2022-11-04T01:43:41;4.73;;;3.07;;
3331;SDS011;1678;50.94845400;5.30809100;2022-11-04T01:46:11;5.10;;;2.07;;
3331;SDS011;1678;50.94845400;5.30809100;2022-11-04T01:48:44;4.73;;;2.70;;
3331;SDS011;1678;50.94845400;5.30809100;2022-11-04T01:51:12;3.07;;;2.77;;
3331;SDS011;1678;50.94845400;5.30809100;2022-11-04T01:53:41;4.07;;;2.57;;
3331;SDS011;1678;50.94845400;5.30809100;2022-11-04T01:56:11;6.07;;;2.30;;
3331;SDS011;1678;50.94845400;5.30809100;2022-11-04T01:58:42;2.10;;;2.00;;
3331;SDS011;1678;50.94845400;5.30809100;2022-11-04T02:01:14;9.43;;;2.03;;
3331;SDS011;1678;50.94845400;5.30809100;2022-11-04T02:03:44;15.73;;;1.90;;
3331;SDS011;1678;50.94845400;5.30809100;2022-11-04T02:06:17;7.27;;;2.40;;
3331;SDS011;1678;50.94845400;5.30809100;2022-11-04T02:08:46;10.57;;;2.90;;
3331;SDS011;1678;50.94845400;5.30809100;2022-11-04T02:11:15;3.00;;;1.53;;
3331;SDS011;1678;50.94845400;5.30809100;2022-11-04T02:13:58;4.30;;;1.67;;
3331;SDS011;1678;50.94845400;5.30809100;2022-11-04T02:16:29;7.30;;;2.73;;
3331;SDS011;1678;50.94845400;5.30809100;2022-11-04T02:19:07;9.40;;;1.90;;
3331;SDS011;1678;50.94845400;5.30809100;2022-11-04T02:22:01;2.33;;;1.50;;
3331;SDS011;1678;50.94845400;5.30809100;2022-11-04T02:24:53;8.53;;;2.53;;
3331;SDS011;1678;50.94845400;5.30809100;2022-11-04T02:27:47;6.93;;;2.33;;
3331;SDS011;1678;50.94845400;5.30809100;2022-11-04T02:30:32;6.07;;;1.90;;
3331;SDS011;1678;50.94845400;5.30809100;2022-11-04T02:33:04;1.80;;;1.67;;
3331;SDS011;1678;50.94845400;5.30809100;2022-11-04T02:35:48;8.83;;;2.13;;
3331;SDS011;1678;50.94845400;5.30809100;2022-11-04T02:38:29;1.83;;;1.70;;
3331;SDS011;1678;50.94845400;5.30809100;2022-11-04T02:41:05;4.93;;;1.90;;
3331;SDS011;1678;50.94845400;5.30809100;2022-11-04T02:43:43;6.43;;;1.53;;
3331;SDS011;1678;50.94845400;5.30809100;2022-11-04T02:46:18;5.23;;;2.90;;
3331;SDS011;1678;50.94845400;5.30809100;2022-11-04T02:48:52;10.13;;;1.90;;
3331;SDS011;1678;50.94845400;5.30809100;2022-11-04T02:51:24;7.53;;;2.53;;
3331;SDS011;1678;50.94845400;5.30809100;2022-11-04T02:53:59;10.07;;;2.90;;
3331;SDS011;1678;50.94845400;5.30809100;2022-11-04T02:56:31;5.80;;;2.60;;
3331;SDS011;1678;50.94845400;5.30809100;2022-11-04T02:59:05;8.40;;;1.77;;
3331;SDS011;1678;50.94845400;5.30809100;2022-11-04T03:01:39;13.03;;;2.80;;
3331;SDS011;1678;50.94845400;5.30809100;2022-11-04T03:04:10;3.40;;;1.80;;
3331;SDS011;1678;50.94845400;5.30809100;2022-11-04T03:06:41;6.63;;;1.80;;
3331;SDS011;1678;50.94845400;5.30809100;2022-11-04T03:09:13;4.60;;;2.67;;
3331;SDS011;1678;50.94845400;5.30809100;2022-11-04T03:11:43;9.57;;;3.07;;
3331;SDS011;1678;50.94845400;5.30809100;2022-11-04T03:14:15;6.20;;;1.73;;
3331;SDS011;1678;50.94845400;5.30809100;2022-11-04T03:16:47;7.80;;;2.57;;
3331;SDS011;1678;50.94845400;5.30809100;2022-11-04T03:19:18;5.93;;;2.27;;
3331;SDS011;1678;50.94845400;5.30809100;2022-11-04T03:21:53;8.73;;;3.10;;
3331;SDS011;1678;50.94845400;5.30809100;2022-11-04T03:24:25;4.67;;;2.27;;
3331;SDS011;1678;50.94845400;5.30809100;2022-11-04T03:26:54;10.47;;;3.23;;
3331;SDS011;1678;50.94845400;5.30809100;2022-11-04T03:29:28;12.87;;;2.20;;
3331;SDS011;1678;50.94845400;5.30809100;2022-11-04T03:32:03;3.90;;;2.20;;
3331;SDS011;1678;50.94845400;5.30809100;2022-11-04T03:34:37;10.40;;;1.70;;
3331;SDS011;1678;50.94845400;5.30809100;2022-11-04T03:37:05;7.03;;;2.50;;
3331;SDS011;1678;50.94845400;5.30809100;2022-11-04T03:39:33;5.00;;;3.17;;
3331;SDS011;1678;50.94845400;5.30809100;2022-11-04T03:42:02;4.10;;;2.40;;
3331;SDS011;1678;50.94845400;5.30809100;2022-11-04T03:44:47;6.20;;;2.23;;
3331;SDS011;1678;50.94845400;5.30809100;2022-11-04T03:47:18;6.17;;;2.83;;
3331;SDS011;1678;50.94845400;5.30809100;2022-11-04T03:49:48;16.03;;;2.87;;
3331;SDS011;1678;50.94845400;5.30809100;2022-11-04T03:52:18;7.67;;;3.00;;
3331;SDS011;1678;50.94845400;5.30809100;2022-11-04T03:54:47;8.17;;;2.80;;
3331;SDS011;1678;50.94845400;5.30809100;2022-11-04T03:57:22;4.43;;;2.33;;
3331;SDS011;1678;50.94845400;5.30809100;2022-11-04T04:00:05;3.90;;;2.23;;
3331;SDS011;1678;50.94845400;5.30809100;2022-11-04T04:02:43;7.10;;;2.00;;
3331;SDS011;1678;50.94845400;5.30809100;2022-11-04T04:05:26;5.13;;;2.13;;
3331;SDS011;1678;50.94845400;5.30809100;2022-11-04T04:07:59;2.50;;;1.90;;
3331;SDS011;1678;50.94845400;5.30809100;2022-11-04T04:10:36;8.20;;;2.33;;
3331;SDS011;1678;50.94845400;5.30809100;2022-11-04T04:13:18;16.07;;;2.97;;
3331;SDS011;1678;50.94845400;5.30809100;2022-11-04T04:15:52;2.30;;;1.63;;
3331;SDS011;1678;50.94845400;5.30809100;2022-11-04T04:18:29;9.83;;;2.37;;
3331;SDS011;1678;50.94845400;5.30809100;2022-11-04T04:21:04;6.60;;;2.60;;
3331;SDS011;1678;50.94845400;5.30809100;2022-11-04T04:23:35;2.87;;;1.80;;
3331;SDS011;1678;50.94845400;5.30809100;2022-11-04T04:26:22;10.50;;;2.50;;
3331;SDS011;1678;50.94845400;5.30809100;2022-11-04T04:29:09;2.43;;;1.20;;
3331;SDS011;1678;50.94845400;5.30809100;2022-11-04T04:31:37;10.20;;;3.40;;
3331;SDS011;1678;50.94845400;5.30809100;2022-11-04T04:34:17;7.33;;;2.93;;
3331;SDS011;1678;50.94845400;5.30809100;2022-11-04T04:36:49;2.83;;;2.10;;
3331;SDS011;1678;50.94845400;5.30809100;2022-11-04T04:39:21;9.10;;;2.00;;
3331;SDS011;1678;50.94845400;5.30809100;2022-11-04T04:42:09;4.83;;;1.83;;
3331;SDS011;1678;50.94845400;5.30809100;2022-11-04T04:44:55;8.07;;;1.90;;
3331;SDS011;1678;50.94845400;5.30809100;2022-11-04T04:47:27;5.57;;;2.57;;
3331;SDS011;1678;50.94845400;5.30809100;2022-11-04T04:50:01;3.60;;;1.37;;
3331;SDS011;1678;50.94845400;5.30809100;2022-11-04T04:52:29;4.30;;;2.53;;
3331;SDS011;1678;50.94845400;5.30809100;2022-11-04T04:54:59;2.80;;;1.40;;
3331;SDS011;1678;50.94845400;5.30809100;2022-11-04T04:57:27;7.80;;;2.23;;
3331;SDS011;1678;50.94845400;5.30809100;2022-11-04T04:59:55;7.97;;;2.13;;
3331;SDS011;1678;50.94845400;5.30809100;2022-11-04T05:02:23;4.00;;;1.70;;
3331;SDS011;1678;50.94845400;5.30809100;2022-11-04T05:04:52;2.40;;;1.67;;
3331;SDS011;1678;50.94845400;5.30809100;2022-11-04T05:07:22;21.90;;;2.87;;
3331;SDS011;1678;50.94845400;5.30809100;2022-11-04T05:09:50;3.47;;;2.47;;
3331;SDS011;1678;50.94845400;5.30809100;2022-11-04T05:12:18;2.73;;;2.00;;
3331;SDS011;1678;50.94845400;5.30809100;2022-11-04T05:14:46;9.60;;;2.47;;
3331;SDS011;1678;50.94845400;5.30809100;2022-11-04T05:17:15;8.20;;;2.40;;
3331;SDS011;1678;50.94845400;5.30809100;2022-11-04T05:19:43;5.87;;;1.73;;
3331;SDS011;1678;50.94845400;5.30809100;2022-11-04T05:22:11;11.90;;;2.87;;
3331;SDS011;1678;50.94845400;5.30809100;2022-11-04T05:24:40;3.40;;;3.10;;
3331;SDS011;1678;50.94845400;5.30809100;2022-11-04T05:27:08;3.90;;;1.90;;
3331;SDS011;1678;50.94845400;5.30809100;2022-11-04T05:29:36;5.80;;;1.80;;
3331;SDS011;1678;50.94845400;5.30809100;2022-11-04T05:32:04;7.43;;;2.70;;
3331;SDS011;1678;50.94845400;5.30809100;2022-11-04T05:34:32;5.00;;;2.37;;
3331;SDS011;1678;50.94845400;5.30809100;2022-11-04T05:37:00;6.60;;;1.60;;
3331;SDS011;1678;50.94845400;5.30809100;2022-11-04T05:39:28;8.00;;;2.80;;
3331;SDS011;1678;50.94845400;5.30809100;2022-11-04T05:41:58;3.83;;;1.77;;
3331;SDS011;1678;50.94845400;5.30809100;2022-11-04T05:44:26;3.87;;;2.07;;
3331;SDS011;1678;50.94845400;5.30809100;2022-11-04T05:46:54;3.50;;;2.10;;
3331;SDS011;1678;50.94845400;5.30809100;2022-11-04T05:49:22;3.73;;;2.03;;
3331;SDS011;1678;50.94845400;5.30809100;2022-11-04T05:51:50;2.67;;;1.53;;
3331;SDS011;1678;50.94845400;5.30809100;2022-11-04T05:54:18;7.27;;;2.80;;
3331;SDS011;1678;50.94845400;5.30809100;2022-11-04T05:56:46;5.53;;;1.40;;
3331;SDS011;1678;50.94845400;5.30809100;2022-11-04T05:59:16;7.40;;;1.60;;
3331;SDS011;1678;50.94845400;5.30809100;2022-11-04T06:01:44;4.80;;;1.73;;
3331;SDS011;1678;50.94845400;5.30809100;2022-11-04T06:04:15;15.60;;;5.00;;
3331;SDS011;1678;50.94845400;5.30809100;2022-11-04T06:06:44;8.03;;;2.27;;
3331;SDS011;1678;50.94845400;5.30809100;2022-11-04T06:09:12;5.50;;;1.20;;
3331;SDS011;1678;50.94845400;5.30809100;2022-11-04T06:11:40;6.90;;;2.13;;
3331;SDS011;1678;50.94845400;5.30809100;2022-11-04T06:14:09;2.90;;;1.50;;
3331;SDS011;1678;50.94845400;5.30809100;2022-11-04T06:16:45;10.63;;;2.53;;
3331;SDS011;1678;50.94845400;5.30809100;2022-11-04T06:19:13;3.00;;;1.50;;
3331;SDS011;1678;50.94845400;5.30809100;2022-11-04T06:21:41;7.40;;;2.57;;
3331;SDS011;1678;50.94845400;5.30809100;2022-11-04T06:24:09;7.40;;;3.23;;
3331;SDS011;1678;50.94845400;5.30809100;2022-11-04T06:26:37;2.20;;;1.47;;
3331;SDS011;1678;50.94845400;5.30809100;2022-11-04T06:29:05;9.60;;;5.03;;
3331;SDS011;1678;50.94845400;5.30809100;2022-11-04T06:31:35;4.07;;;1.97;;
3331;SDS011;1678;50.94845400;5.30809100;2022-11-04T06:34:04;5.33;;;1.43;;
3331;SDS011;1678;50.94845400;5.30809100;2022-11-04T06:36:32;4.33;;;2.10;;
3331;SDS011;1678;50.94845400;5.30809100;2022-11-04T06:39:01;9.70;;;1.50;;
3331;SDS011;1678;50.94845400;5.30809100;2022-11-04T06:41:30;12.20;;;2.17;;
3331;SDS011;1678;50.94845400;5.30809100;2022-11-04T06:43:58;7.30;;;1.93;;
3331;SDS011;1678;50.94845400;5.30809100;2022-11-04T06:46:27;7.50;;;2.33;;
3331;SDS011;1678;50.94845400;5.30809100;2022-11-04T06:49:00;3.60;;;2.17;;
3331;SDS011;1678;50.94845400;5.30809100;2022-11-04T06:51:30;9.40;;;2.20;;
3331;SDS011;1678;50.94845400;5.30809100;2022-11-04T06:53:58;11.37;;;2.63;;
3331;SDS011;1678;50.94845400;5.30809100;2022-11-04T06:56:27;2.53;;;1.47;;
3331;SDS011;1678;50.94845400;5.30809100;2022-11-04T06:58:55;8.60;;;2.40;;
3331;SDS011;1678;50.94845400;5.30809100;2022-11-04T07:01:24;3.10;;;1.80;;
3331;SDS011;1678;50.94845400;5.30809100;2022-11-04T07:03:55;13.80;;;4.30;;
3331;SDS011;1678;50.94845400;5.30809100;2022-11-04T07:06:24;6.97;;;2.50;;
3331;SDS011;1678;50.94845400;5.30809100;2022-11-04T07:08:55;6.63;;;2.00;;
3331;SDS011;1678;50.94845400;5.30809100;2022-11-04T07:11:24;6.83;;;2.40;;
3331;SDS011;1678;50.94845400;5.30809100;2022-11-04T07:13:54;9.63;;;2.67;;
3331;SDS011;1678;50.94845400;5.30809100;2022-11-04T07:16:23;10.80;;;2.53;;
3331;SDS011;1678;50.94845400;5.30809100;2022-11-04T07:18:52;9.50;;;2.40;;
3331;SDS011;1678;50.94845400;5.30809100;2022-11-04T07:21:20;7.70;;;2.67;;
3331;SDS011;1678;50.94845400;5.30809100;2022-11-04T07:23:49;3.90;;;1.90;;
3331;SDS011;1678;50.94845400;5.30809100;2022-11-04T07:26:18;4.93;;;2.40;;
3331;SDS011;1678;50.94845400;5.30809100;2022-11-04T07:28:46;2.70;;;1.67;;
3331;SDS011;1678;50.94845400;5.30809100;2022-11-04T07:31:14;4.00;;;1.90;;
3331;SDS011;1678;50.94845400;5.30809100;2022-11-04T07:33:43;4.80;;;2.30;;
3331;SDS011;1678;50.94845400;5.30809100;2022-11-04T07:36:15;4.17;;;2.13;;
3331;SDS011;1678;50.94845400;5.30809100;2022-11-04T07:38:44;4.43;;;2.37;;
3331;SDS011;1678;50.94845400;5.30809100;2022-11-04T07:41:13;1.83;;;1.73;;
3331;SDS011;1678;50.94845400;5.30809100;2022-11-04T07:43:46;13.03;;;4.00;;
3331;SDS011;1678;50.94845400;5.30809100;2022-11-04T07:46:15;4.33;;;2.53;;
3331;SDS011;1678;50.94845400;5.30809100;2022-11-04T07:48:44;22.70;;;2.27;;
3331;SDS011;1678;50.94845400;5.30809100;2022-11-04T07:51:13;2.70;;;2.53;;
3331;SDS011;1678;50.94845400;5.30809100;2022-11-04T07:53:42;7.23;;;2.30;;
3331;SDS011;1678;50.94845400;5.30809100;2022-11-04T07:56:12;2.07;;;1.80;;
3331;SDS011;1678;50.94845400;5.30809100;2022-11-04T07:58:40;5.13;;;2.63;;
3331;SDS011;1678;50.94845400;5.30809100;2022-11-04T08:01:11;3.03;;;1.90;;
3331;SDS011;1678;50.94845400;5.30809100;2022-11-04T08:03:41;4.47;;;2.73;;
3331;SDS011;1678;50.94845400;5.30809100;2022-11-04T08:06:10;3.60;;;1.93;;
3331;SDS011;1678;50.94845400;5.30809100;2022-11-04T08:08:40;13.90;;;4.87;;
3331;SDS011;1678;50.94845400;5.30809100;2022-11-04T08:11:09;5.13;;;2.80;;
3331;SDS011;1678;50.94845400;5.30809100;2022-11-04T08:13:43;4.57;;;1.93;;
3331;SDS011;1678;50.94845400;5.30809100;2022-11-04T08:16:14;3.53;;;1.73;;
3331;SDS011;1678;50.94845400;5.30809100;2022-11-04T08:18:44;4.03;;;2.03;;
3331;SDS011;1678;50.94845400;5.30809100;2022-11-04T08:21:13;5.07;;;1.73;;
3331;SDS011;1678;50.94845400;5.30809100;2022-11-04T08:23:41;4.37;;;2.30;;
3331;SDS011;1678;50.94845400;5.30809100;2022-11-04T08:26:12;5.20;;;2.03;;
3331;SDS011;1678;50.94845400;5.30809100;2022-11-04T08:28:43;15.83;;;3.23;;
3331;SDS011;1678;50.94845400;5.30809100;2022-11-04T08:31:14;7.57;;;2.13;;
3331;SDS011;1678;50.94845400;5.30809100;2022-11-04T08:33:44;10.50;;;2.70;;
3331;SDS011;1678;50.94845400;5.30809100;2022-11-04T08:36:13;10.47;;;2.07;;
3331;SDS011;1678;50.94845400;5.30809100;2022-11-04T08:38:43;2.33;;;2.10;;
3331;SDS011;1678;50.94845400;5.30809100;2022-11-04T08:41:12;6.10;;;3.27;;
3331;SDS011;1678;50.94845400;5.30809100;2022-11-04T08:43:41;1.30;;;1.20;;
3331;SDS011;1678;50.94845400;5.30809100;2022-11-04T08:46:10;4.10;;;2.20;;
3331;SDS011;1678;50.94845400;5.30809100;2022-11-04T08:48:40;9.80;;;1.60;;
3331;SDS011;1678;50.94845400;5.30809100;2022-11-04T08:51:10;5.67;;;1.57;;
3331;SDS011;1678;50.94845400;5.30809100;2022-11-04T08:53:40;3.53;;;3.23;;
3331;SDS011;1678;50.94845400;5.30809100;2022-11-04T08:56:12;3.17;;;1.27;;
3331;SDS011;1678;50.94845400;5.30809100;2022-11-04T08:58:48;6.70;;;2.20;;
3331;SDS011;1678;50.94845400;5.30809100;2022-11-04T09:01:16;5.77;;;1.53;;
3331;SDS011;1678;50.94845400;5.30809100;2022-11-04T09:03:47;7.97;;;2.47;;
3331;SDS011;1678;50.94845400;5.30809100;2022-11-04T09:06:17;8.73;;;2.10;;
3331;SDS011;1678;50.94845400;5.30809100;2022-11-04T09:08:47;3.83;;;2.70;;
3331;SDS011;1678;50.94845400;5.30809100;2022-11-04T09:11:15;20.03;;;2.07;;
3331;SDS011;1678;50.94845400;5.30809100;2022-11-04T09:13:44;2.00;;;1.90;;
3331;SDS011;1678;50.94845400;5.30809100;2022-11-04T09:16:13;4.47;;;3.23;;
3331;SDS011;1678;50.94845400;5.30809100;2022-11-04T09:18:42;4.47;;;2.47;;
3331;SDS011;1678;50.94845400;5.30809100;2022-11-04T09:21:11;1.53;;;1.20;;
3331;SDS011;1678;50.94845400;5.30809100;2022-11-04T09:23:39;4.13;;;1.57;;
3331;SDS011;1678;50.94845400;5.30809100;2022-11-04T09:26:08;2.30;;;1.83;;
3331;SDS011;1678;50.94845400;5.30809100;2022-11-04T09:28:38;6.17;;;2.33;;
3331;SDS011;1678;50.94845400;5.30809100;2022-11-04T09:31:07;2.03;;;1.40;;
3331;SDS011;1678;50.94845400;5.30809100;2022-11-04T09:33:36;11.20;;;1.57;;
3331;SDS011;1678;50.94845400;5.30809100;2022-11-04T09:36:04;7.30;;;1.00;;
3331;SDS011;1678;50.94845400;5.30809100;2022-11-04T09:38:36;3.77;;;1.17;;
3331;SDS011;1678;50.94845400;5.30809100;2022-11-04T09:41:08;3.60;;;1.27;;
3331;SDS011;1678;50.94845400;5.30809100;2022-11-04T09:43:52;8.00;;;1.80;;
3331;SDS011;1678;50.94845400;5.30809100;2022-11-04T09:46:29;1.67;;;1.13;;
3331;SDS011;1678;50.94845400;5.30809100;2022-11-04T09:49:00;5.93;;;1.37;;
3331;SDS011;1678;50.94845400;5.30809100;2022-11-04T09:51:31;2.70;;;1.33;;
3331;SDS011;1678;50.94845400;5.30809100;2022-11-04T09:54:22;5.60;;;1.30;;
3331;SDS011;1678;50.94845400;5.30809100;2022-11-04T09:56:51;4.00;;;1.30;;
3331;SDS011;1678;50.94845400;5.30809100;2022-11-04T09:59:24;7.07;;;1.27;;
3331;SDS011;1678;50.94845400;5.30809100;2022-11-04T10:01:58;4.30;;;1.50;;
3331;SDS011;1678;50.94845400;5.30809100;2022-11-04T10:04:50;3.83;;;1.80;;
3331;SDS011;1678;50.94845400;5.30809100;2022-11-04T10:07:31;5.53;;;1.40;;
3331;SDS011;1678;50.94845400;5.30809100;2022-11-04T10:10:12;11.50;;;1.40;;
3331;SDS011;1678;50.94845400;5.30809100;2022-11-04T10:12:56;3.67;;;1.93;;
3331;SDS011;1678;50.94845400;5.30809100;2022-11-04T10:15:39;3.13;;;1.47;;
3331;SDS011;1678;50.94845400;5.30809100;2022-11-04T10:18:23;5.70;;;3.80;;
3331;SDS011;1678;50.94845400;5.30809100;2022-11-04T10:21:03;4.70;;;2.20;;
3331;SDS011;1678;50.94845400;5.30809100;2022-11-04T10:23:39;2.23;;;2.00;;
3331;SDS011;1678;50.94845400;5.30809100;2022-11-04T10:26:14;3.67;;;1.43;;
3331;SDS011;1678;50.94845400;5.30809100;2022-11-04T10:28:45;2.10;;;1.80;;
3331;SDS011;1678;50.94845400;5.30809100;2022-11-04T10:31:18;3.07;;;2.10;;
3331;SDS011;1678;50.94845400;5.30809100;2022-11-04T10:33:46;4.53;;;1.37;;
3331;SDS011;1678;50.94845400;5.30809100;2022-11-04T10:36:18;6.30;;;1.23;;
3331;SDS011;1678;50.94845400;5.30809100;2022-11-04T10:38:47;8.17;;;1.60;;
3331;SDS011;1678;50.94845400;5.30809100;2022-11-04T10:41:23;2.63;;;2.40;;
3331;SDS011;1678;50.94845400;5.30809100;2022-11-04T10:43:56;7.77;;;2.20;;
3331;SDS011;1678;50.94845400;5.30809100;2022-11-04T10:46:35;6.27;;;2.03;;
3331;SDS011;1678;50.94845400;5.30809100;2022-11-04T10:49:19;3.40;;;1.33;;
3331;SDS011;1678;50.94845400;5.30809100;2022-11-04T10:52:26;3.80;;;1.63;;
3331;SDS011;1678;50.94845400;5.30809100;2022-11-04T10:54:54;2.63;;;1.10;;
3331;SDS011;1678;50.94845400;5.30809100;2022-11-04T10:57:24;2.67;;;1.57;;
3331;SDS011;1678;50.94845400;5.30809100;2022-11-04T10:59:52;2.03;;;1.10;;
3331;SDS011;1678;50.94845400;5.30809100;2022-11-04T11:05:13;1.77;;;1.57;;
3331;SDS011;1678;50.94845400;5.30809100;2022-11-04T11:07:49;9.30;;;2.47;;
3331;SDS011;1678;50.94845400;5.30809100;2022-11-04T11:10:19;5.93;;;2.20;;
3331;SDS011;1678;50.94845400;5.30809100;2022-11-04T11:12:54;5.67;;;1.43;;
3331;SDS011;1678;50.94845400;5.30809100;2022-11-04T11:15:26;6.77;;;1.90;;
3331;SDS011;1678;50.94845400;5.30809100;2022-11-04T11:17:56;10.33;;;1.87;;
3331;SDS011;1678;50.94845400;5.30809100;2022-11-04T11:20:27;2.90;;;2.10;;
3331;SDS011;1678;50.94845400;5.30809100;2022-11-04T11:22:57;13.90;;;1.90;;
3331;SDS011;1678;50.94845400;5.30809100;2022-11-04T11:25:30;2.17;;;1.87;;
3331;SDS011;1678;50.94845400;5.30809100;2022-11-04T11:28:01;10.00;;;2.50;;
3331;SDS011;1678;50.94845400;5.30809100;2022-11-04T11:30:32;7.73;;;2.83;;
3331;SDS011;1678;50.94845400;5.30809100;2022-11-04T11:33:15;7.80;;;2.87;;
3331;SDS011;1678;50.94845400;5.30809100;2022-11-04T11:35:45;3.43;;;2.10;;
3331;SDS011;1678;50.94845400;5.30809100;2022-11-04T11:38:17;2.73;;;1.60;;
3331;SDS011;1678;50.94845400;5.30809100;2022-11-04T11:40:49;7.30;;;2.57;;
3331;SDS011;1678;50.94845400;5.30809100;2022-11-04T11:43:41;3.17;;;1.60;;
3331;SDS011;1678;50.94845400;5.30809100;2022-11-04T11:46:12;4.10;;;2.37;;
3331;SDS011;1678;50.94845400;5.30809100;2022-11-04T11:48:49;2.40;;;1.80;;
3331;SDS011;1678;50.94845400;5.30809100;2022-11-04T11:51:21;3.37;;;1.70;;
3331;SDS011;1678;50.94845400;5.30809100;2022-11-04T11:54:00;3.73;;;2.03;;
3331;SDS011;1678;50.94845400;5.30809100;2022-11-04T11:56:45;3.17;;;1.17;;
3331;SDS011;1678;50.94845400;5.30809100;2022-11-04T11:59:40;2.10;;;1.57;;
3331;SDS011;1678;50.94845400;5.30809100;2022-11-04T12:02:33;5.60;;;1.63;;
3331;SDS011;1678;50.94845400;5.30809100;2022-11-04T12:05:07;6.50;;;2.03;;
3331;SDS011;1678;50.94845400;5.30809100;2022-11-04T12:07:59;4.23;;;0.80;;
3331;SDS011;1678;50.94845400;5.30809100;2022-11-04T12:10:56;8.40;;;3.93;;
3331;SDS011;1678;50.94845400;5.30809100;2022-11-04T12:13:34;1.60;;;1.50;;
3331;SDS011;1678;50.94845400;5.30809100;2022-11-04T12:16:11;4.10;;;1.23;;
3331;SDS011;1678;50.94845400;5.30809100;2022-11-04T12:21:44;2.33;;;2.03;;
3331;SDS011;1678;50.94845400;5.30809100;2022-11-04T12:24:23;4.20;;;1.93;;
3331;SDS011;1678;50.94845400;5.30809100;2022-11-04T12:27:02;7.13;;;2.73;;
3331;SDS011;1678;50.94845400;5.30809100;2022-11-04T12:29:41;3.43;;;1.90;;
3331;SDS011;1678;50.94845400;5.30809100;2022-11-04T12:32:19;3.67;;;1.97;;
3331;SDS011;1678;50.94845400;5.30809100;2022-11-04T12:34:58;7.00;;;1.97;;
3331;SDS011;1678;50.94845400;5.30809100;2022-11-04T12:37:40;7.77;;;2.70;;
3331;SDS011;1678;50.94845400;5.30809100;2022-11-04T12:40:21;10.00;;;2.40;;
3331;SDS011;1678;50.94845400;5.30809100;2022-11-04T12:43:00;3.07;;;2.40;;
3331;SDS011;1678;50.94845400;5.30809100;2022-11-04T12:45:40;2.10;;;2.00;;
3331;SDS011;1678;50.94845400;5.30809100;2022-11-04T12:48:22;6.33;;;2.73;;
3331;SDS011;1678;50.94845400;5.30809100;2022-11-04T12:51:07;4.10;;;2.93;;
3331;SDS011;1678;50.94845400;5.30809100;2022-11-04T12:53:44;6.23;;;2.97;;
3331;SDS011;1678;50.94845400;5.30809100;2022-11-04T12:56:25;7.97;;;6.07;;
3331;SDS011;1678;50.94845400;5.30809100;2022-11-04T12:59:08;11.70;;;4.90;;
3331;SDS011;1678;50.94845400;5.30809100;2022-11-04T13:01:51;6.00;;;5.40;;
3331;SDS011;1678;50.94845400;5.30809100;2022-11-04T13:04:25;5.23;;;4.67;;
3331;SDS011;1678;50.94845400;5.30809100;2022-11-04T13:06:59;6.53;;;5.97;;
3331;SDS011;1678;50.94845400;5.30809100;2022-11-04T13:09:33;4.57;;;4.17;;
3331;SDS011;1678;50.94845400;5.30809100;2022-11-04T13:12:06;6.57;;;5.90;;
3331;SDS011;1678;50.94845400;5.30809100;2022-11-04T13:14:40;7.03;;;5.50;;
3331;SDS011;1678;50.94845400;5.30809100;2022-11-04T13:17:14;7.13;;;5.80;;
3331;SDS011;1678;50.94845400;5.30809100;2022-11-04T13:19:47;6.63;;;6.10;;
3331;SDS011;1678;50.94845400;5.30809100;2022-11-04T13:22:19;7.47;;;5.83;;
3331;SDS011;1678;50.94845400;5.30809100;2022-11-04T13:24:51;7.43;;;6.63;;
3331;SDS011;1678;50.94845400;5.30809100;2022-11-04T13:27:24;12.80;;;7.03;;
3331;SDS011;1678;50.94845400;5.30809100;2022-11-04T13:29:57;7.13;;;6.73;;
3331;SDS011;1678;50.94845400;5.30809100;2022-11-04T13:32:32;13.90;;;7.80;;
3331;SDS011;1678;50.94845400;5.30809100;2022-11-04T13:35:07;11.13;;;8.03;;
3331;SDS011;1678;50.94845400;5.30809100;2022-11-04T13:37:43;8.13;;;6.47;;
3331;SDS011;1678;50.94845400;5.30809100;2022-11-04T13:40:22;12.40;;;7.37;;
3331;SDS011;1678;50.94845400;5.30809100;2022-11-04T13:42:56;10.77;;;8.10;;
3331;SDS011;1678;50.94845400;5.30809100;2022-11-04T13:45:52;11.00;;;8.50;;
3331;SDS011;1678;50.94845400;5.30809100;2022-11-04T13:48:22;6.77;;;6.17;;